Time;durP1;ratioP1;P1;durP2;ratioP2;P2;SDS_P1;SDS_P2;PMS_P1;PMS_P2;Temp;Humidity;BMP_temperature;BMP_pressure;BME280_temperature;BME280_humidity;BME280_pressure;Samples;Min_cycle;Max_cycle;Signal;HPM_P1;HPM_P2
2021/07/23 00:00:32;;;;;;;6.43;5.68;;;;;;;;;;5094038;28;20024;-60
2021/07/23 00:02:58;;;;;;;6.60;5.68;;;;;;;;;;5093956;28;20028;-60
2021/07/23 00:05:23;;;;;;;6.75;6.00;;;;;;;;;;5093803;28;20020;-61
2021/07/23 00:07:49;;;;;;;7.40;5.75;;;;;;;;;;5093762;28;20059;-61
2021/07/23 00:10:14;;;;;;;7.78;5.80;;;;;;;;;;5093487;28;20103;-60
2021/07/23 00:12:40;;;;;;;12.18;6.20;;;;;;;;;;5093569;28;20026;-61
2021/07/23 00:15:06;;;;;;;6.28;5.68;;;;;;;;;;5093471;28;20012;-60
2021/07/23 00:17:32;;;;;;;7.18;6.32;;;;;;;;;;5093013;28;20040;-61
2021/07/23 00:19:57;;;;;;;7.68;6.80;;;;;;;;;;5093423;28;20036;-61
2021/07/23 00:22:22;;;;;;;8.43;6.75;;;;;;;;;;5075378;28;20034;-60
2021/07/23 00:24:48;;;;;;;8.07;6.88;;;;;;;;;;5075500;28;20023;-60
2021/07/23 00:27:15;;;;;;;7.28;6.28;;;;;;;;;;5075535;28;20107;-61
2021/07/23 00:29:41;;;;;;;9.45;6.25;;;;;;;;;;5093392;28;20020;-61
2021/07/23 00:32:07;;;;;;;8.00;6.35;;;;;;;;;;5093455;28;20031;-61
2021/07/23 00:34:32;;;;;;;6.65;6.05;;;;;;;;;;5093327;28;20020;-60
2021/07/23 00:36:58;;;;;;;7.70;6.47;;;;;;;;;;5075175;28;20078;-61
2021/07/23 00:39:23;;;;;;;6.57;5.85;;;;;;;;;;5075355;28;20016;-61
2021/07/23 00:41:49;;;;;;;6.38;5.53;;;;;;;;;;5093251;28;20364;-61
2021/07/23 00:44:15;;;;;;;6.53;5.93;;;;;;;;;;5075034;28;20020;-60
2021/07/23 00:46:45;;;;;;;6.53;5.90;;;;;;;;;;5075184;28;20055;-60
2021/07/23 00:49:11;;;;;;;6.95;5.45;;;;;;;;;;5074862;28;20028;-61
2021/07/23 00:51:37;;;;;;;7.13;5.55;;;;;;;;;;5093374;28;20020;-61
2021/07/23 00:54:04;;;;;;;8.27;6.18;;;;;;;;;;5075205;28;20480;-60
2021/07/23 00:56:31;;;;;;;6.10;5.50;;;;;;;;;;5093281;28;20384;-61
2021/07/23 00:58:58;;;;;;;6.05;5.45;;;;;;;;;;5093318;28;20016;-61
2021/07/23 01:01:24;;;;;;;6.00;5.50;;;;;;;;;;5074991;28;20036;-61
2021/07/23 01:03:50;;;;;;;7.32;5.40;;;;;;;;;;5093056;28;20024;-61
2021/07/23 01:06:16;;;;;;;6.15;5.55;;;;;;;;;;5093110;28;20111;-60
2021/07/23 01:08:42;;;;;;;5.68;5.22;;;;;;;;;;5093858;28;20407;-61
2021/07/23 01:11:11;;;;;;;6.75;5.32;;;;;;;;;;5074881;28;20070;-61
2021/07/23 01:14:00;;;;;;;6.03;4.90;;;;;;;;;;5054673;28;20039;-60
2021/07/23 01:16:26;;;;;;;6.25;5.63;;;;;;;;;;5074827;28;20020;-61
2021/07/23 01:18:51;;;;;;;9.13;5.82;;;;;;;;;;5093047;28;20020;-60
2021/07/23 01:21:18;;;;;;;7.18;6.22;;;;;;;;;;5093052;28;20028;-60
2021/07/23 01:23:45;;;;;;;7.55;6.00;;;;;;;;;;5092943;28;20021;-61
2021/07/23 01:26:41;;;;;;;8.02;6.82;;;;;;;;;;5075020;28;20116;-60
2021/07/23 01:29:09;;;;;;;7.03;6.28;;;;;;;;;;5075492;28;20051;-60
2021/07/23 01:31:35;;;;;;;7.28;6.05;;;;;;;;;;5078645;28;20062;-60
2021/07/23 01:34:01;;;;;;;6.88;5.35;;;;;;;;;;5078399;28;20081;-60
2021/07/23 01:36:27;;;;;;;8.30;6.35;;;;;;;;;;5078407;28;20020;-61
2021/07/23 01:38:54;;;;;;;6.40;5.85;;;;;;;;;;5078521;28;20020;-61
2021/07/23 01:41:22;;;;;;;6.32;5.63;;;;;;;;;;5078372;28;20028;-61
2021/07/23 01:43:48;;;;;;;6.25;5.07;;;;;;;;;;5078481;28;20126;-60
2021/07/23 01:46:14;;;;;;;5.93;5.35;;;;;;;;;;5078253;28;20100;-61
2021/07/23 01:48:42;;;;;;;6.78;5.15;;;;;;;;;;5096510;28;20050;-61
2021/07/23 01:51:23;;;;;;;6.18;5.53;;;;;;;;;;5058147;28;20043;-61
2021/07/23 01:53:50;;;;;;;6.57;4.85;;;;;;;;;;5057999;28;20033;-60
2021/07/23 01:56:16;;;;;;;6.32;5.15;;;;;;;;;;5075799;28;20070;-61
2021/07/23 01:58:43;;;;;;;6.57;5.68;;;;;;;;;;5075951;28;20021;-60
2021/07/23 02:01:09;;;;;;;8.23;5.32;;;;;;;;;;5075651;28;20012;-61
2021/07/23 02:03:40;;;;;;;6.25;5.18;;;;;;;;;;5058077;28;20036;-60
2021/07/23 02:06:06;;;;;;;8.77;5.28;;;;;;;;;;5075821;28;20396;-60
2021/07/23 02:08:33;;;;;;;9.05;5.80;;;;;;;;;;5057993;28;20043;-61
2021/07/23 02:11:02;;;;;;;7.38;5.70;;;;;;;;;;5075713;28;20064;-61
2021/07/23 02:13:28;;;;;;;6.47;5.72;;;;;;;;;;5057942;28;20369;-61
2021/07/23 02:15:55;;;;;;;6.25;5.57;;;;;;;;;;5057570;28;20032;-61
2021/07/23 02:18:22;;;;;;;6.45;5.78;;;;;;;;;;5057560;28;20089;-61
2021/07/23 02:20:50;;;;;;;6.43;5.82;;;;;;;;;;5057536;28;20104;-61
2021/07/23 02:23:17;;;;;;;6.88;6.10;;;;;;;;;;5057567;28;20031;-60
2021/07/23 02:25:44;;;;;;;7.22;5.68;;;;;;;;;;5057572;28;20391;-60
2021/07/23 02:28:11;;;;;;;6.53;5.93;;;;;;;;;;5057466;28;20055;-60
2021/07/23 02:30:40;;;;;;;7.20;6.18;;;;;;;;;;5057253;28;20040;-60
2021/07/23 02:33:21;;;;;;;7.03;5.57;;;;;;;;;;5075384;28;20016;-60
2021/07/23 02:35:49;;;;;;;6.10;5.18;;;;;;;;;;5057322;28;20024;-60
2021/07/23 02:38:14;;;;;;;6.15;5.35;;;;;;;;;;5075213;28;20502;-61
2021/07/23 02:40:46;;;;;;;5.38;4.88;;;;;;;;;;5056736;28;20036;-60
2021/07/23 02:43:12;;;;;;;8.68;5.45;;;;;;;;;;5057120;28;20036;-60
2021/07/23 02:45:40;;;;;;;7.63;5.25;;;;;;;;;;5057231;28;20016;-61
2021/07/23 02:48:07;;;;;;;6.78;5.68;;;;;;;;;;5057105;28;20082;-61
2021/07/23 02:50:36;;;;;;;6.65;6.05;;;;;;;;;;5066768;28;20041;-61
2021/07/23 02:53:03;;;;;;;9.80;5.47;;;;;;;;;;5073642;28;20115;-61
2021/07/23 02:55:28;;;;;;;5.72;5.22;;;;;;;;;;5073583;28;20028;-61
2021/07/23 02:57:54;;;;;;;5.97;5.35;;;;;;;;;;5074792;28;20082;-61
2021/07/23 03:00:24;;;;;;;6.65;5.70;;;;;;;;;;5074852;28;20437;-60
2021/07/23 03:02:53;;;;;;;6.38;5.88;;;;;;;;;;5073398;28;20506;-61
2021/07/23 03:05:18;;;;;;;6.70;5.97;;;;;;;;;;5073601;28;20111;-60
2021/07/23 03:07:44;;;;;;;6.65;5.78;;;;;;;;;;5056892;28;20077;-60
2021/07/23 03:10:10;;;;;;;8.13;5.10;;;;;;;;;;5073406;28;20021;-60
2021/07/23 03:12:37;;;;;;;7.93;5.28;;;;;;;;;;5073428;28;20024;-61
2021/07/23 03:15:03;;;;;;;5.75;5.18;;;;;;;;;;5073327;28;20491;-60
2021/07/23 03:17:29;;;;;;;5.70;4.95;;;;;;;;;;5073229;28;20174;-61
2021/07/23 03:20:02;;;;;;;5.40;4.95;;;;;;;;;;5073239;28;20027;-60
2021/07/23 03:22:29;;;;;;;9.45;5.78;;;;;;;;;;5073211;28;20024;-60
2021/07/23 03:24:56;;;;;;;30.83;6.85;;;;;;;;;;5074332;28;20484;-60
2021/07/23 03:27:44;;;;;;;5.90;5.13;;;;;;;;;;5074155;28;20033;-61
2021/07/23 03:30:13;;;;;;;6.32;4.97;;;;;;;;;;5072767;28;20306;-60
2021/07/23 03:32:38;;;;;;;7.35;5.28;;;;;;;;;;5072914;28;20541;-61
2021/07/23 03:35:05;;;;;;;7.80;5.35;;;;;;;;;;5072859;28;20027;-61
2021/07/23 03:37:41;;;;;;;5.15;4.65;;;;;;;;;;5073155;28;20019;-61
2021/07/23 03:40:19;;;;;;;6.00;5.35;;;;;;;;;;5074035;28;20024;-61
2021/07/23 03:42:46;;;;;;;8.07;5.55;;;;;;;;;;5072663;28;20361;-61
2021/07/23 03:45:17;;;;;;;7.75;5.95;;;;;;;;;;5072605;28;20383;-61
2021/07/23 03:47:47;;;;;;;5.88;5.28;;;;;;;;;;5072720;28;20062;-61
2021/07/23 03:50:13;;;;;;;6.97;5.38;;;;;;;;;;5072014;28;20065;-61
2021/07/23 03:52:48;;;;;;;5.60;5.10;;;;;;;;;;5071624;28;20448;-60
2021/07/23 03:55:32;;;;;;;6.15;4.95;;;;;;;;;;5074104;28;20078;-61
2021/07/23 03:57:58;;;;;;;5.82;5.22;;;;;;;;;;5072326;28;20077;-60
2021/07/23 04:00:24;;;;;;;5.40;4.90;;;;;;;;;;5072325;28;20024;-60
2021/07/23 04:02:55;;;;;;;5.57;5.07;;;;;;;;;;5072453;28;20043;-60
2021/07/23 04:05:20;;;;;;;6.55;5.43;;;;;;;;;;5072366;28;20024;-61
2021/07/23 04:07:46;;;;;;;6.78;5.03;;;;;;;;;;5072332;28;20430;-61
2021/07/23 04:10:12;;;;;;;7.15;5.28;;;;;;;;;;5073301;28;20048;-61
2021/07/23 04:12:38;;;;;;;5.43;5.03;;;;;;;;;;5072128;28;20020;-60
2021/07/23 04:15:08;;;;;;;8.25;5.25;;;;;;;;;;5072085;28;20403;-61
2021/07/23 04:17:45;;;;;;;6.15;4.60;;;;;;;;;;5072264;28;20066;-61
2021/07/23 04:20:11;;;;;;;6.55;4.95;;;;;;;;;;5072092;28;20028;-60
2021/07/23 04:22:36;;;;;;;7.47;5.22;;;;;;;;;;5071983;28;20055;-61
2021/07/23 04:25:08;;;;;;;7.35;5.03;;;;;;;;;;5072161;28;20028;-60
2021/07/23 04:27:34;;;;;;;5.88;5.20;;;;;;;;;;5072206;28;20119;-60
2021/07/23 04:30:07;;;;;;;6.63;5.60;;;;;;;;;;5073433;28;20016;-60
2021/07/23 04:32:53;;;;;;;5.60;5.10;;;;;;;;;;5073133;28;20036;-61
2021/07/23 04:35:19;;;;;;;5.97;5.38;;;;;;;;;;5072039;28;20477;-61
2021/07/23 04:37:44;;;;;;;6.07;5.47;;;;;;;;;;5072047;28;20082;-60
2021/07/23 04:40:33;;;;;;;6.40;5.80;;;;;;;;;;5067148;28;20075;-60
2021/07/23 04:42:59;;;;;;;6.57;5.65;;;;;;;;;;5071637;28;20048;-60
2021/07/23 04:45:25;;;;;;;6.20;5.32;;;;;;;;;;5071861;28;20020;-61
2021/07/23 04:48:02;;;;;;;9.02;5.45;;;;;;;;;;5073185;28;20037;-60
2021/07/23 04:50:32;;;;;;;6.78;5.70;;;;;;;;;;5071386;28;20045;-61
2021/07/23 04:53:17;;;;;;;5.50;5.00;;;;;;;;;;5051612;28;20108;-61
2021/07/23 04:56:07;;;;;;;8.98;5.50;;;;;;;;;;5053200;28;20029;-60
2021/07/23 04:58:34;;;;;;;7.20;5.28;;;;;;;;;;5071737;28;20090;-61
2021/07/23 05:01:00;;;;;;;8.45;5.25;;;;;;;;;;5071681;28;20024;-60
2021/07/23 05:03:35;;;;;;;6.20;5.45;;;;;;;;;;5073351;28;20029;-60
2021/07/23 05:06:00;;;;;;;8.27;5.32;;;;;;;;;;5075670;28;20040;-61
2021/07/23 05:08:27;;;;;;;5.28;4.78;;;;;;;;;;5077003;28;20551;-61
2021/07/23 05:10:53;;;;;;;5.53;4.97;;;;;;;;;;5076754;28;20074;-61
2021/07/23 05:13:19;;;;;;;5.95;5.30;;;;;;;;;;5075569;28;20103;-61
2021/07/23 05:15:45;;;;;;;6.55;5.30;;;;;;;;;;5076740;28;20028;-61
2021/07/23 05:18:10;;;;;;;7.20;5.85;;;;;;;;;;5076705;28;20368;-61
2021/07/23 05:20:37;;;;;;;6.03;4.97;;;;;;;;;;5075386;28;20123;-60
2021/07/23 05:23:02;;;;;;;7.35;5.47;;;;;;;;;;5076676;28;20472;-60
2021/07/23 05:25:28;;;;;;;5.80;5.20;;;;;;;;;;5076516;28;20030;-61
2021/07/23 05:27:54;;;;;;;20.35;6.53;;;;;;;;;;5076528;28;20025;-60
2021/07/23 05:30:20;;;;;;;11.82;5.72;;;;;;;;;;5076362;28;20033;-60
2021/07/23 05:32:45;;;;;;;6.03;5.53;;;;;;;;;;5076516;28;20039;-60
2021/07/23 05:35:11;;;;;;;6.93;5.28;;;;;;;;;;5076392;28;20025;-60
2021/07/23 05:37:37;;;;;;;6.05;5.32;;;;;;;;;;5076682;28;20012;-60
2021/07/23 05:40:02;;;;;;;6.53;5.55;;;;;;;;;;5076516;28;20060;-61
2021/07/23 05:42:28;;;;;;;6.78;5.05;;;;;;;;;;5076251;28;20017;-61
2021/07/23 05:44:54;;;;;;;5.68;5.05;;;;;;;;;;5076376;28;20027;-69
2021/07/23 05:47:19;;;;;;;6.70;5.50;;;;;;;;;;5076272;28;20024;-69
2021/07/23 05:49:45;;;;;;;9.40;5.25;;;;;;;;;;5082522;28;20514;-69
2021/07/23 05:52:10;;;;;;;11.60;5.53;;;;;;;;;;5096860;28;20107;-69
2021/07/23 05:54:36;;;;;;;6.13;5.53;;;;;;;;;;5096347;28;20032;-69
2021/07/23 05:57:02;;;;;;;9.98;5.72;;;;;;;;;;5096309;28;20154;-70
2021/07/23 05:59:27;;;;;;;14.68;5.40;;;;;;;;;;5095969;28;20077;-60
2021/07/23 06:01:53;;;;;;;5.57;5.03;;;;;;;;;;5096267;28;20008;-61
2021/07/23 06:04:18;;;;;;;6.82;5.45;;;;;;;;;;5096093;28;20035;-61
2021/07/23 06:06:44;;;;;;;9.60;6.03;;;;;;;;;;5096217;28;20479;-60
2021/07/23 06:09:09;;;;;;;6.47;5.78;;;;;;;;;;5077664;28;20024;-60
2021/07/23 06:11:37;;;;;;;7.95;6.25;;;;;;;;;;5095965;28;20479;-60
2021/07/23 06:14:04;;;;;;;5.65;5.10;;;;;;;;;;5095846;28;20032;-60
2021/07/23 06:16:29;;;;;;;5.85;5.35;;;;;;;;;;5094720;28;20383;-61
2021/07/23 06:18:55;;;;;;;5.53;4.80;;;;;;;;;;5096197;28;20114;-60
2021/07/23 06:21:21;;;;;;;5.57;5.07;;;;;;;;;;5095825;28;20023;-60
2021/07/23 06:23:47;;;;;;;6.05;5.38;;;;;;;;;;5095812;28;20023;-60
2021/07/23 06:26:12;;;;;;;7.70;6.20;;;;;;;;;;5095699;28;20464;-61
2021/07/23 06:28:38;;;;;;;7.63;5.82;;;;;;;;;;5077078;28;20032;-61
2021/07/23 06:31:04;;;;;;;6.93;5.28;;;;;;;;;;5095334;28;20392;-60
2021/07/23 06:33:30;;;;;;;5.82;5.22;;;;;;;;;;5095525;28;20074;-61
2021/07/23 06:35:56;;;;;;;6.72;5.43;;;;;;;;;;5077594;28;20433;-60
2021/07/23 06:38:21;;;;;;;6.00;5.50;;;;;;;;;;5095533;28;20020;-60
2021/07/23 06:40:47;;;;;;;6.18;5.57;;;;;;;;;;5095660;28;20049;-60
2021/07/23 06:43:12;;;;;;;7.35;4.85;;;;;;;;;;5095373;28;20494;-60
2021/07/23 06:45:38;;;;;;;9.82;5.30;;;;;;;;;;5095377;28;20384;-60
2021/07/23 06:48:04;;;;;;;5.65;5.13;;;;;;;;;;5095225;28;20059;-60
2021/07/23 06:50:31;;;;;;;5.10;4.60;;;;;;;;;;5094641;28;20043;-61
2021/07/23 06:52:57;;;;;;;4.85;4.45;;;;;;;;;;5095472;28;20039;-60
2021/07/23 06:55:23;;;;;;;4.60;4.03;;;;;;;;;;5095021;28;20012;-61
2021/07/23 06:57:48;;;;;;;4.60;4.18;;;;;;;;;;5077091;28;20034;-60
2021/07/23 07:00:14;;;;;;;5.53;5.03;;;;;;;;;;5095026;28;20023;-60
2021/07/23 07:02:39;;;;;;;5.20;4.70;;;;;;;;;;5094871;28;20029;-61
2021/07/23 07:05:05;;;;;;;4.80;4.40;;;;;;;;;;5094942;28;20027;-60
2021/07/23 07:07:31;;;;;;;6.85;4.75;;;;;;;;;;5095009;28;20043;-60
2021/07/23 07:09:56;;;;;;;4.90;4.50;;;;;;;;;;5094865;28;20027;-61
2021/07/23 07:12:22;;;;;;;5.90;5.05;;;;;;;;;;5094799;28;20110;-61
2021/07/23 07:14:47;;;;;;;4.40;4.07;;;;;;;;;;5094836;28;20012;-60
2021/07/23 07:17:13;;;;;;;4.55;3.92;;;;;;;;;;5094740;28;20028;-60
2021/07/23 07:19:39;;;;;;;4.82;4.32;;;;;;;;;;5094857;28;20031;-61
2021/07/23 07:22:04;;;;;;;5.07;4.50;;;;;;;;;;5094545;28;20028;-61
2021/07/23 07:24:30;;;;;;;5.45;4.90;;;;;;;;;;5095021;28;20051;-60
2021/07/23 07:26:56;;;;;;;5.38;4.80;;;;;;;;;;5094336;28;20103;-60
2021/07/23 07:29:21;;;;;;;6.85;4.95;;;;;;;;;;5094406;28;20103;-60
2021/07/23 07:31:47;;;;;;;4.78;4.38;;;;;;;;;;5094411;28;20024;-60
2021/07/23 07:34:13;;;;;;;5.75;4.28;;;;;;;;;;5076465;28;20024;-60
2021/07/23 07:36:38;;;;;;;8.32;5.32;;;;;;;;;;5094375;28;20024;-60
2021/07/23 07:39:04;;;;;;;5.80;5.30;;;;;;;;;;5094648;28;20352;-60
2021/07/23 07:41:30;;;;;;;5.35;4.90;;;;;;;;;;5094320;28;20043;-61
2021/07/23 07:43:56;;;;;;;4.80;4.40;;;;;;;;;;5094332;28;20458;-69
2021/07/23 07:46:21;;;;;;;6.28;4.63;;;;;;;;;;5094142;28;20510;-69
2021/07/23 07:48:47;;;;;;;5.55;5.03;;;;;;;;;;5094309;28;20016;-69
2021/07/23 07:51:13;;;;;;;5.03;4.43;;;;;;;;;;5093628;28;20112;-66
2021/07/23 07:53:38;;;;;;;6.32;5.72;;;;;;;;;;5094199;28;20020;-69
2021/07/23 07:56:07;;;;;;;7.40;5.95;;;;;;;;;;5094043;28;20425;-70
2021/07/23 07:58:33;;;;;;;6.10;5.60;;;;;;;;;;5094181;28;20020;-67
2021/07/23 08:00:59;;;;;;;5.30;4.88;;;;;;;;;;5093987;28;20024;-72
2021/07/23 08:03:25;;;;;;;5.63;5.13;;;;;;;;;;5093834;28;20032;-69
2021/07/23 08:05:54;;;;;;;6.22;5.45;;;;;;;;;;5093834;28;20023;-69
2021/07/23 08:08:21;;;;;;;6.13;5.45;;;;;;;;;;5094039;28;20028;-68
2021/07/23 08:10:47;;;;;;;5.93;5.35;;;;;;;;;;5093752;28;20111;-68
2021/07/23 08:13:13;;;;;;;7.97;5.22;;;;;;;;;;5093645;28;20028;-68
2021/07/23 08:15:39;;;;;;;5.95;5.45;;;;;;;;;;5093646;28;20111;-68
2021/07/23 08:18:05;;;;;;;5.65;5.07;;;;;;;;;;5093252;28;20024;-68
2021/07/23 08:20:32;;;;;;;8.38;5.32;;;;;;;;;;5075503;28;20073;-68
2021/07/23 08:23:00;;;;;;;8.05;5.53;;;;;;;;;;5093663;28;20028;-68
2021/07/23 08:25:25;;;;;;;6.32;5.32;;;;;;;;;;5093496;28;20513;-68
2021/07/23 08:27:51;;;;;;;6.82;5.65;;;;;;;;;;5092904;28;20024;-68
2021/07/23 08:30:16;;;;;;;6.85;6.10;;;;;;;;;;5073110;28;20566;-68
2021/07/23 08:32:45;;;;;;;6.88;5.72;;;;;;;;;;5091387;28;20077;-68
2021/07/23 08:35:10;;;;;;;10.45;6.35;;;;;;;;;;5091297;28;20529;-68
2021/07/23 08:44:46;;;;;;;5.43;4.93;;;;;;;;;;5093972;28;20069;-66
2021/07/23 08:54:22;;;;;;;6.47;4.70;;;;;;;;;;5093880;28;20547;-66
2021/07/23 09:00:23;;;;;;;5.78;5.20;;;;;;;;;;5093851;28;20047;-66
2021/07/23 09:06:24;;;;;;;5.57;5.05;;;;;;;;;;5093530;28;20026;-66
2021/07/23 09:12:25;;;;;;;6.88;5.13;;;;;;;;;;5093740;28;20102;-66
2021/07/23 09:18:41;;;;;;;6.50;4.68;;;;;;;;;;5093751;28;20470;-66
2021/07/23 09:29:02;;;;;;;4.78;4.35;;;;;;;;;;5051253;28;20027;-66
2021/07/23 09:35:07;;;;;;;5.43;4.93;;;;;;;;;;5051166;28;20503;-66
2021/07/23 09:45:02;;;;;;;5.43;4.25;;;;;;;;;;5051150;28;20032;-66
2021/07/23 09:54:36;;;;;;;5.15;4.47;;;;;;;;;;5076954;28;20066;-66
2021/07/23 10:00:38;;;;;;;5.40;4.90;;;;;;;;;;5076836;28;20035;-66
2021/07/23 10:17:35;;;;;;;4.82;4.32;;;;;;;;;;5076258;28;20019;-66
2021/07/23 10:38:30;;;;;;;5.63;5.07;;;;;;;;;;5094319;28;20387;-58
2021/07/23 10:41:09;;;;;;;6.30;5.50;;;;;;;;;;5095379;28;20115;-58
2021/07/23 10:43:36;;;;;;;8.98;5.05;;;;;;;;;;5095625;28;20055;-58
2021/07/23 10:46:01;;;;;;;7.75;5.53;;;;;;;;;;5095390;28;20041;-58
2021/07/23 10:48:46;;;;;;;5.22;4.80;;;;;;;;;;5095385;28;20500;-58
2021/07/23 10:51:33;;;;;;;7.75;5.20;;;;;;;;;;5094872;28;20503;-66
2021/07/23 10:54:02;;;;;;;8.38;5.35;;;;;;;;;;5095200;28;20032;-66
2021/07/23 10:57:06;;;;;;;6.35;5.18;;;;;;;;;;5095062;28;20026;-58
2021/07/23 10:59:39;;;;;;;5.80;4.85;;;;;;;;;;5093947;28;20036;-66
2021/07/23 11:02:10;;;;;;;6.57;4.50;;;;;;;;;;5094144;28;20028;-67
2021/07/23 11:04:38;;;;;;;6.00;5.40;;;;;;;;;;5094864;28;20035;-66
2021/07/23 11:07:04;;;;;;;4.68;4.20;;;;;;;;;;5094931;28;20115;-66
2021/07/23 11:09:31;;;;;;;7.07;5.30;;;;;;;;;;5094802;28;20101;-66
2021/07/23 11:12:16;;;;;;;6.35;4.80;;;;;;;;;;5094973;28;20023;-66
2021/07/23 11:14:41;;;;;;;7.13;5.20;;;;;;;;;;5094914;28;20153;-66
2021/07/23 11:17:08;;;;;;;6.05;5.25;;;;;;;;;;5094863;28;20028;-66
2021/07/23 11:19:34;;;;;;;5.20;4.80;;;;;;;;;;5094619;28;20098;-66
2021/07/23 11:22:00;;;;;;;4.90;4.45;;;;;;;;;;5094669;28;20361;-66
2021/07/23 11:24:33;;;;;;;4.70;4.35;;;;;;;;;;5094655;28;20039;-66
2021/07/23 11:26:58;;;;;;;6.45;4.70;;;;;;;;;;5094485;28;20119;-66
2021/07/23 11:29:31;;;;;;;4.68;4.28;;;;;;;;;;5094412;28;20133;-66
2021/07/23 11:32:04;;;;;;;5.95;5.35;;;;;;;;;;5094001;28;20044;-67
2021/07/23 11:34:36;;;;;;;7.75;6.30;;;;;;;;;;5092845;28;20028;-66
2021/07/23 11:37:25;;;;;;;7.93;5.38;;;;;;;;;;5103072;28;20031;-66
2021/07/23 11:39:55;;;;;;;10.70;6.30;;;;;;;;;;5111475;28;20043;-66
2021/07/23 11:42:24;;;;;;;31.10;16.60;;;;;;;;;;5078122;28;20277;-67
2021/07/23 11:44:58;;;;;;;13.97;9.83;;;;;;;;;;5113182;28;20031;-67
2021/07/23 11:47:30;;;;;;;11.73;7.45;;;;;;;;;;5113014;28;20092;-66
2021/07/23 11:49:56;;;;;;;5.70;5.20;;;;;;;;;;5112981;28;20039;-67
2021/07/23 11:52:25;;;;;;;5.93;5.43;;;;;;;;;;5112891;28;20073;-69
2021/07/23 11:55:04;;;;;;;5.85;5.25;;;;;;;;;;5113519;28;20040;-68
2021/07/23 11:57:30;;;;;;;9.52;5.03;;;;;;;;;;5114357;28;20447;-69
2021/07/23 11:59:56;;;;;;;6.30;5.63;;;;;;;;;;5114461;28;20051;-69
2021/07/23 12:02:27;;;;;;;4.63;4.22;;;;;;;;;;5114135;28;20035;-68
2021/07/23 12:05:07;;;;;;;8.13;4.88;;;;;;;;;;5114233;28;20521;-68
2021/07/23 12:07:34;;;;;;;5.85;5.38;;;;;;;;;;5113853;28;20122;-68
2021/07/23 12:10:00;;;;;;;7.15;4.72;;;;;;;;;;5114231;28;20474;-68
2021/07/23 12:12:26;;;;;;;8.88;5.00;;;;;;;;;;5113842;28;20088;-69
2021/07/23 12:14:52;;;;;;;8.48;5.25;;;;;;;;;;5113295;28;20114;-68
2021/07/23 12:17:17;;;;;;;5.20;4.80;;;;;;;;;;5114044;28;20028;-68
2021/07/23 12:19:43;;;;;;;8.00;5.68;;;;;;;;;;5114048;28;20086;-68
2021/07/23 12:22:10;;;;;;;6.07;4.88;;;;;;;;;;5113953;28;20039;-68
2021/07/23 12:24:36;;;;;;;6.80;5.60;;;;;;;;;;5113981;28;20032;-68
2021/07/23 12:27:15;;;;;;;7.63;5.65;;;;;;;;;;5113927;28;20057;-68
2021/07/23 12:29:40;;;;;;;7.57;5.00;;;;;;;;;;5113216;28;20038;-68
2021/07/23 12:32:12;;;;;;;9.02;6.10;;;;;;;;;;5113804;28;20020;-68
2021/07/23 12:34:39;;;;;;;23.33;7.30;;;;;;;;;;5113532;28;20120;-68
2021/07/23 12:37:14;;;;;;;5.75;5.20;;;;;;;;;;5111409;28;20070;-69
2021/07/23 12:39:53;;;;;;;5.97;5.38;;;;;;;;;;5109709;28;20035;-70
2021/07/23 12:42:23;;;;;;;5.70;5.18;;;;;;;;;;5083931;28;20040;-69
2021/07/23 12:44:48;;;;;;;5.50;4.90;;;;;;;;;;5072994;28;20475;-69
2021/07/23 12:47:17;;;;;;;6.30;5.65;;;;;;;;;;5108580;28;20063;-69
2021/07/23 12:49:42;;;;;;;8.07;6.70;;;;;;;;;;5108683;28;20233;-69
2021/07/23 12:52:08;;;;;;;6.28;5.32;;;;;;;;;;5107042;28;20104;-70
2021/07/23 12:54:34;;;;;;;4.68;4.28;;;;;;;;;;5108672;28;20340;-69
2021/07/23 12:57:10;;;;;;;4.65;4.25;;;;;;;;;;5108145;28;20139;-69
2021/07/23 12:59:36;;;;;;;5.50;5.03;;;;;;;;;;5109163;28;20042;-69
2021/07/23 13:02:02;;;;;;;5.80;5.30;;;;;;;;;;5109898;28;20019;-69
2021/07/23 13:04:27;;;;;;;5.80;5.30;;;;;;;;;;5110047;28;20043;-69
2021/07/23 13:06:53;;;;;;;5.07;4.50;;;;;;;;;;5109403;28;20032;-69
2021/07/23 13:09:19;;;;;;;5.30;4.80;;;;;;;;;;5109177;28;20494;-69
2021/07/23 13:11:45;;;;;;;5.68;5.07;;;;;;;;;;5109670;28;20023;-69
2021/07/23 13:14:10;;;;;;;7.07;5.25;;;;;;;;;;5091874;28;20059;-70
2021/07/23 13:16:36;;;;;;;5.63;5.13;;;;;;;;;;5109827;28;20028;-70
2021/07/23 13:19:01;;;;;;;7.97;6.00;;;;;;;;;;5110163;28;20038;-69
2021/07/23 13:21:27;;;;;;;6.63;5.10;;;;;;;;;;5109183;28;20027;-69
2021/07/23 13:23:53;;;;;;;6.07;5.03;;;;;;;;;;5090553;28;20046;-69
2021/07/23 13:26:18;;;;;;;5.90;5.10;;;;;;;;;;5112965;28;20101;-69
2021/07/23 13:28:44;;;;;;;5.47;4.97;;;;;;;;;;5113745;28;20039;-69
2021/07/23 13:31:09;;;;;;;5.88;5.38;;;;;;;;;;5113918;28;20036;-70
2021/07/23 13:33:35;;;;;;;8.27;5.50;;;;;;;;;;5113963;28;20042;-70
2021/07/23 13:36:19;;;;;;;6.18;5.30;;;;;;;;;;5113827;28;20031;-69
2021/07/23 13:38:48;;;;;;;6.00;5.28;;;;;;;;;;5114022;28;20044;-69
2021/07/23 13:41:16;;;;;;;18.38;6.35;;;;;;;;;;5113782;28;20043;-70
2021/07/23 13:43:42;;;;;;;5.90;5.03;;;;;;;;;;5113453;28;20131;-69
2021/07/23 13:46:08;;;;;;;5.78;5.28;;;;;;;;;;5095277;28;20130;-69
2021/07/23 13:48:33;;;;;;;5.88;5.38;;;;;;;;;;5078391;28;20054;-69
2021/07/23 13:50:59;;;;;;;5.82;4.97;;;;;;;;;;5113618;28;20116;-68
2021/07/23 13:53:24;;;;;;;5.32;4.82;;;;;;;;;;5113315;28;20035;-69
2021/07/23 13:55:50;;;;;;;8.27;4.80;;;;;;;;;;5113659;28;20585;-69
2021/07/23 13:58:15;;;;;;;6.82;4.70;;;;;;;;;;5113152;28;20043;-68
2021/07/23 14:00:41;;;;;;;6.00;5.40;;;;;;;;;;5113402;28;20020;-69
2021/07/23 14:03:06;;;;;;;6.10;5.50;;;;;;;;;;5112993;28;20035;-69
2021/07/23 14:05:33;;;;;;;5.50;4.97;;;;;;;;;;5113079;28;20427;-68
2021/07/23 14:07:58;;;;;;;5.57;5.00;;;;;;;;;;5113276;28;20046;-69
2021/07/23 14:10:24;;;;;;;5.68;5.18;;;;;;;;;;5112863;28;20039;-69
2021/07/23 14:12:49;;;;;;;5.65;5.13;;;;;;;;;;5113115;28;20036;-69
2021/07/23 14:15:15;;;;;;;6.18;5.50;;;;;;;;;;5113191;28;20027;-69
2021/07/23 14:17:41;;;;;;;5.85;4.85;;;;;;;;;;5113157;28;20036;-70
2021/07/23 14:20:07;;;;;;;5.55;5.05;;;;;;;;;;5112686;28;20027;-69
2021/07/23 14:22:32;;;;;;;4.70;4.30;;;;;;;;;;5112482;28;20228;-70
2021/07/23 14:24:58;;;;;;;6.30;5.13;;;;;;;;;;5112933;28;20036;-69
2021/07/23 14:27:23;;;;;;;4.72;4.38;;;;;;;;;;5113158;28;20448;-69
2021/07/23 14:29:49;;;;;;;5.63;5.13;;;;;;;;;;5112863;28;20030;-70
2021/07/23 14:32:14;;;;;;;5.63;5.10;;;;;;;;;;5094385;28;20040;-69
2021/07/23 14:34:40;;;;;;;5.82;5.28;;;;;;;;;;5112774;28;20054;-70
2021/07/23 14:37:06;;;;;;;6.82;5.63;;;;;;;;;;5111025;28;20031;-70
2021/07/23 14:39:33;;;;;;;7.85;6.22;;;;;;;;;;5112924;28;20051;-74
2021/07/23 14:41:59;;;;;;;5.93;5.32;;;;;;;;;;5112620;28;20475;-73
2021/07/23 14:44:24;;;;;;;5.90;5.40;;;;;;;;;;5112984;28;20072;-72
2021/07/23 14:46:50;;;;;;;5.55;5.00;;;;;;;;;;5094257;28;20081;-73
2021/07/23 14:49:15;;;;;;;7.05;6.45;;;;;;;;;;5112145;28;20046;-72
2021/07/23 14:51:41;;;;;;;10.80;5.60;;;;;;;;;;5111777;28;20051;-72
2021/07/23 14:54:08;;;;;;;5.95;5.38;;;;;;;;;;5112665;28;20034;-72
2021/07/23 14:56:33;;;;;;;5.60;5.03;;;;;;;;;;5094261;28;20038;-72
2021/07/23 14:58:59;;;;;;;6.55;5.88;;;;;;;;;;5112559;28;20453;-73
2021/07/23 15:01:24;;;;;;;7.72;6.50;;;;;;;;;;5093822;28;20046;-72
2021/07/23 15:03:50;;;;;;;7.13;5.68;;;;;;;;;;5112289;28;20481;-73
2021/07/23 15:06:17;;;;;;;6.95;6.25;;;;;;;;;;5112160;28;20403;-73
2021/07/23 15:08:43;;;;;;;7.53;5.47;;;;;;;;;;5112576;28;20739;-73
2021/07/23 15:11:09;;;;;;;6.18;5.60;;;;;;;;;;5112157;28;20088;-73
2021/07/23 15:13:34;;;;;;;13.45;5.88;;;;;;;;;;5112149;28;20027;-73
2021/07/23 15:16:01;;;;;;;6.20;5.60;;;;;;;;;;5111873;28;20043;-61
2021/07/23 15:18:29;;;;;;;6.28;5.65;;;;;;;;;;5111270;28;20455;-62
2021/07/23 15:21:01;;;;;;;6.70;6.07;;;;;;;;;;5092975;28;20039;-61
2021/07/23 15:23:27;;;;;;;7.00;6.20;;;;;;;;;;5093319;28;20040;-61
2021/07/23 15:25:53;;;;;;;8.57;6.75;;;;;;;;;;5111521;28;20089;-61
2021/07/23 15:28:18;;;;;;;8.40;5.53;;;;;;;;;;5092941;28;20071;-62
2021/07/23 15:30:44;;;;;;;6.68;5.80;;;;;;;;;;5111286;28;20035;-62
2021/07/23 15:33:09;;;;;;;8.65;5.95;;;;;;;;;;5110785;28;20035;-61
2021/07/23 15:35:35;;;;;;;10.63;6.40;;;;;;;;;;5111455;28;20028;-61
2021/07/23 15:38:02;;;;;;;7.15;6.18;;;;;;;;;;5111833;28;20048;-61
2021/07/23 15:40:30;;;;;;;6.38;5.78;;;;;;;;;;5111519;28;20165;-61
2021/07/23 15:42:56;;;;;;;9.68;6.68;;;;;;;;;;5111315;28;20043;-62
2021/07/23 15:45:22;;;;;;;13.43;7.28;;;;;;;;;;5111737;28;20028;-63
2021/07/23 15:47:47;;;;;;;12.63;8.32;;;;;;;;;;5111061;28;20036;-63
2021/07/23 15:50:13;;;;;;;12.43;8.75;;;;;;;;;;5111353;28;20031;-63
2021/07/23 15:52:38;;;;;;;32.05;18.38;;;;;;;;;;5092638;28;20126;-62
2021/07/23 15:55:04;;;;;;;15.68;10.15;;;;;;;;;;5111164;28;20042;-61
2021/07/23 15:57:30;;;;;;;10.00;8.35;;;;;;;;;;5111078;28;20035;-62
2021/07/23 15:59:55;;;;;;;8.52;5.53;;;;;;;;;;5111131;28;20019;-61
2021/07/23 16:02:21;;;;;;;10.45;6.60;;;;;;;;;;5110961;28;20112;-62
2021/07/23 16:04:46;;;;;;;7.18;6.43;;;;;;;;;;5110975;28;20031;-62
2021/07/23 16:07:12;;;;;;;6.95;5.82;;;;;;;;;;5110849;28;20043;-61
2021/07/23 16:09:38;;;;;;;7.65;6.88;;;;;;;;;;5110795;28;20035;-62
2021/07/23 16:12:04;;;;;;;6.93;5.55;;;;;;;;;;5110779;28;20139;-62
2021/07/23 16:14:30;;;;;;;6.47;5.97;;;;;;;;;;5110839;28;20107;-62
2021/07/23 16:16:55;;;;;;;6.45;5.82;;;;;;;;;;5110790;28;20043;-63